sensor_id;sensor_type;location;lat;lon;timestamp;P1;durP1;ratioP1;P2;durP2;ratioP2
2622;SDS011;1321;48.690;9.022;2023-05-07T00:00:29;13.80;;;13.30;;
2622;SDS011;1321;48.690;9.022;2023-05-07T00:03:00;14.73;;;14.20;;
2622;SDS011;1321;48.690;9.022;2023-05-07T00:05:30;14.30;;;13.70;;
2622;SDS011;1321;48.690;9.022;2023-05-07T00:07:58;14.20;;;13.70;;
2622;SDS011;1321;48.690;9.022;2023-05-07T00:10:27;14.10;;;13.50;;
2622;SDS011;1321;48.690;9.022;2023-05-07T00:12:55;14.77;;;13.90;;
2622;SDS011;1321;48.690;9.022;2023-05-07T00:15:23;13.77;;;13.30;;
2622;SDS011;1321;48.690;9.022;2023-05-07T00:17:52;14.77;;;13.97;;
2622;SDS011;1321;48.690;9.022;2023-05-07T00:20:21;13.90;;;13.40;;
2622;SDS011;1321;48.690;9.022;2023-05-07T00:22:50;14.40;;;13.90;;
2622;SDS011;1321;48.690;9.022;2023-05-07T00:25:19;14.57;;;14.07;;
2622;SDS011;1321;48.690;9.022;2023-05-07T00:27:47;14.33;;;13.83;;
2622;SDS011;1321;48.690;9.022;2023-05-07T00:30:15;14.63;;;14.03;;
2622;SDS011;1321;48.690;9.022;2023-05-07T00:32:43;14.23;;;13.83;;
2622;SDS011;1321;48.690;9.022;2023-05-07T00:35:12;14.73;;;14.13;;
2622;SDS011;1321;48.690;9.022;2023-05-07T00:37:40;14.80;;;14.10;;
2622;SDS011;1321;48.690;9.022;2023-05-07T00:40:10;14.63;;;14.03;;
2622;SDS011;1321;48.690;9.022;2023-05-07T00:42:38;14.10;;;13.50;;
2622;SDS011;1321;48.690;9.022;2023-05-07T00:45:07;14.10;;;13.30;;
2622;SDS011;1321;48.690;9.022;2023-05-07T00:47:37;14.13;;;13.63;;
2622;SDS011;1321;48.690;9.022;2023-05-07T00:50:05;14.10;;;13.60;;
2622;SDS011;1321;48.690;9.022;2023-05-07T00:52:36;14.33;;;13.73;;
2622;SDS011;1321;48.690;9.022;2023-05-07T00:55:05;14.60;;;14.10;;
2622;SDS011;1321;48.690;9.022;2023-05-07T00:57:37;14.33;;;13.83;;
2622;SDS011;1321;48.690;9.022;2023-05-07T01:00:08;14.20;;;13.70;;
2622;SDS011;1321;48.690;9.022;2023-05-07T01:02:39;14.97;;;14.20;;
2622;SDS011;1321;48.690;9.022;2023-05-07T01:05:09;13.80;;;13.40;;
2622;SDS011;1321;48.690;9.022;2023-05-07T01:07:40;14.47;;;13.97;;
2622;SDS011;1321;48.690;9.022;2023-05-07T01:10:10;15.00;;;14.17;;
2622;SDS011;1321;48.690;9.022;2023-05-07T01:12:40;14.57;;;13.97;;
2622;SDS011;1321;48.690;9.022;2023-05-07T01:15:10;14.50;;;14.00;;
2622;SDS011;1321;48.690;9.022;2023-05-07T01:17:38;14.73;;;14.20;;
2622;SDS011;1321;48.690;9.022;2023-05-07T01:20:08;15.07;;;14.43;;
2622;SDS011;1321;48.690;9.022;2023-05-07T01:22:39;14.60;;;14.00;;
2622;SDS011;1321;48.690;9.022;2023-05-07T01:25:08;14.10;;;13.70;;
2622;SDS011;1321;48.690;9.022;2023-05-07T01:27:36;14.50;;;14.00;;
2622;SDS011;1321;48.690;9.022;2023-05-07T01:30:05;15.07;;;14.40;;
2622;SDS011;1321;48.690;9.022;2023-05-07T01:32:36;14.93;;;13.97;;
2622;SDS011;1321;48.690;9.022;2023-05-07T01:35:09;14.43;;;13.97;;
2622;SDS011;1321;48.690;9.022;2023-05-07T01:37:42;13.80;;;13.30;;
2622;SDS011;1321;48.690;9.022;2023-05-07T01:40:10;14.17;;;13.57;;
2622;SDS011;1321;48.690;9.022;2023-05-07T01:42:39;13.83;;;13.33;;
2622;SDS011;1321;48.690;9.022;2023-05-07T01:45:09;15.03;;;14.10;;
2622;SDS011;1321;48.690;9.022;2023-05-07T01:47:37;14.10;;;13.47;;
2622;SDS011;1321;48.690;9.022;2023-05-07T01:50:07;14.97;;;14.27;;
2622;SDS011;1321;48.690;9.022;2023-05-07T01:52:37;15.00;;;14.03;;
2622;SDS011;1321;48.690;9.022;2023-05-07T01:55:07;14.37;;;13.67;;
2622;SDS011;1321;48.690;9.022;2023-05-07T01:57:35;14.87;;;14.27;;
2622;SDS011;1321;48.690;9.022;2023-05-07T02:00:04;14.83;;;14.20;;
2622;SDS011;1321;48.690;9.022;2023-05-07T02:02:36;14.10;;;13.60;;
2622;SDS011;1321;48.690;9.022;2023-05-07T02:05:05;14.73;;;14.13;;
2622;SDS011;1321;48.690;9.022;2023-05-07T02:07:33;13.80;;;13.40;;
2622;SDS011;1321;48.690;9.022;2023-05-07T02:10:01;14.13;;;13.53;;
2622;SDS011;1321;48.690;9.022;2023-05-07T02:12:31;13.83;;;13.23;;
2622;SDS011;1321;48.690;9.022;2023-05-07T02:15:00;14.37;;;13.87;;
2622;SDS011;1321;48.690;9.022;2023-05-07T02:17:28;14.20;;;13.70;;
2622;SDS011;1321;48.690;9.022;2023-05-07T02:19:58;14.77;;;14.07;;
2622;SDS011;1321;48.690;9.022;2023-05-07T02:22:26;14.87;;;14.37;;
2622;SDS011;1321;48.690;9.022;2023-05-07T02:24:54;13.80;;;13.10;;
2622;SDS011;1321;48.690;9.022;2023-05-07T02:27:23;13.87;;;13.37;;
2622;SDS011;1321;48.690;9.022;2023-05-07T02:29:52;14.17;;;13.37;;
2622;SDS011;1321;48.690;9.022;2023-05-07T02:32:21;13.80;;;13.20;;
2622;SDS011;1321;48.690;9.022;2023-05-07T02:34:50;14.47;;;13.77;;
2622;SDS011;1321;48.690;9.022;2023-05-07T02:37:18;13.87;;;13.30;;
2622;SDS011;1321;48.690;9.022;2023-05-07T02:39:46;14.43;;;13.73;;
2622;SDS011;1321;48.690;9.022;2023-05-07T02:42:14;14.60;;;14.10;;
2622;SDS011;1321;48.690;9.022;2023-05-07T02:44:42;14.50;;;13.90;;
2622;SDS011;1321;48.690;9.022;2023-05-07T02:47:13;14.30;;;13.70;;
2622;SDS011;1321;48.690;9.022;2023-05-07T02:49:42;14.63;;;14.13;;
2622;SDS011;1321;48.690;9.022;2023-05-07T02:52:10;14.27;;;13.67;;
2622;SDS011;1321;48.690;9.022;2023-05-07T02:54:38;14.97;;;14.40;;
2622;SDS011;1321;48.690;9.022;2023-05-07T02:57:06;14.80;;;14.10;;
2622;SDS011;1321;48.690;9.022;2023-05-07T02:59:34;15.53;;;14.53;;
2622;SDS011;1321;48.690;9.022;2023-05-07T03:02:03;14.97;;;14.17;;
2622;SDS011;1321;48.690;9.022;2023-05-07T03:04:33;14.37;;;13.77;;
2622;SDS011;1321;48.690;9.022;2023-05-07T03:07:01;14.63;;;14.10;;
2622;SDS011;1321;48.690;9.022;2023-05-07T03:09:29;14.17;;;13.67;;
2622;SDS011;1321;48.690;9.022;2023-05-07T03:11:57;15.00;;;14.30;;
2622;SDS011;1321;48.690;9.022;2023-05-07T03:14:25;14.30;;;13.63;;
2622;SDS011;1321;48.690;9.022;2023-05-07T03:16:54;14.17;;;13.67;;
2622;SDS011;1321;48.690;9.022;2023-05-07T03:19:22;13.70;;;13.30;;
2622;SDS011;1321;48.690;9.022;2023-05-07T03:21:51;15.20;;;14.20;;
2622;SDS011;1321;48.690;9.022;2023-05-07T03:24:19;14.60;;;13.93;;
2622;SDS011;1321;48.690;9.022;2023-05-07T03:26:48;13.80;;;13.27;;
2622;SDS011;1321;48.690;9.022;2023-05-07T03:29:16;13.83;;;13.33;;
2622;SDS011;1321;48.690;9.022;2023-05-07T03:31:44;14.40;;;13.80;;
2622;SDS011;1321;48.690;9.022;2023-05-07T03:34:12;14.73;;;14.13;;
2622;SDS011;1321;48.690;9.022;2023-05-07T03:36:43;14.73;;;14.23;;
2622;SDS011;1321;48.690;9.022;2023-05-07T03:39:13;14.60;;;14.10;;
2622;SDS011;1321;48.690;9.022;2023-05-07T03:41:41;15.23;;;14.53;;
2622;SDS011;1321;48.690;9.022;2023-05-07T03:44:09;15.20;;;14.60;;
2622;SDS011;1321;48.690;9.022;2023-05-07T03:46:37;14.30;;;13.70;;
2622;SDS011;1321;48.690;9.022;2023-05-07T03:49:05;14.43;;;13.77;;
2622;SDS011;1321;48.690;9.022;2023-05-07T03:51:34;14.57;;;13.97;;
2622;SDS011;1321;48.690;9.022;2023-05-07T03:54:03;13.80;;;13.40;;
2622;SDS011;1321;48.690;9.022;2023-05-07T03:56:32;14.37;;;13.73;;
2622;SDS011;1321;48.690;9.022;2023-05-07T03:59:00;13.33;;;12.90;;
2622;SDS011;1321;48.690;9.022;2023-05-07T04:01:29;13.97;;;13.37;;
2622;SDS011;1321;48.690;9.022;2023-05-07T04:03:57;13.93;;;13.33;;
2622;SDS011;1321;48.690;9.022;2023-05-07T04:06:25;14.47;;;13.97;;
2622;SDS011;1321;48.690;9.022;2023-05-07T04:08:53;14.97;;;14.27;;
2622;SDS011;1321;48.690;9.022;2023-05-07T04:11:22;14.10;;;13.70;;
2622;SDS011;1321;48.690;9.022;2023-05-07T04:13:51;15.20;;;14.60;;
2622;SDS011;1321;48.690;9.022;2023-05-07T04:16:19;14.80;;;14.20;;
2622;SDS011;1321;48.690;9.022;2023-05-07T04:18:48;15.27;;;14.57;;
2622;SDS011;1321;48.690;9.022;2023-05-07T04:21:16;14.70;;;13.80;;
2622;SDS011;1321;48.690;9.022;2023-05-07T04:23:45;14.50;;;13.70;;
2622;SDS011;1321;48.690;9.022;2023-05-07T04:26:13;14.80;;;14.20;;
2622;SDS011;1321;48.690;9.022;2023-05-07T04:28:42;14.37;;;13.73;;
2622;SDS011;1321;48.690;9.022;2023-05-07T04:31:12;14.50;;;14.10;;
2622;SDS011;1321;48.690;9.022;2023-05-07T04:33:40;15.27;;;14.67;;
2622;SDS011;1321;48.690;9.022;2023-05-07T04:36:08;14.90;;;14.30;;
2622;SDS011;1321;48.690;9.022;2023-05-07T04:38:37;15.43;;;14.80;;
2622;SDS011;1321;48.690;9.022;2023-05-07T04:41:05;15.53;;;15.00;;
2622;SDS011;1321;48.690;9.022;2023-05-07T04:43:37;16.40;;;15.70;;
2622;SDS011;1321;48.690;9.022;2023-05-07T04:46:06;15.50;;;15.00;;
2622;SDS011;1321;48.690;9.022;2023-05-07T04:48:36;15.67;;;14.97;;
2622;SDS011;1321;48.690;9.022;2023-05-07T04:51:04;15.40;;;14.80;;
2622;SDS011;1321;48.690;9.022;2023-05-07T04:53:32;16.00;;;15.50;;
2622;SDS011;1321;48.690;9.022;2023-05-07T04:56:00;15.93;;;15.43;;
2622;SDS011;1321;48.690;9.022;2023-05-07T04:58:28;16.20;;;15.60;;
2622;SDS011;1321;48.690;9.022;2023-05-07T05:00:58;16.43;;;15.73;;
2622;SDS011;1321;48.690;9.022;2023-05-07T05:03:27;16.77;;;16.17;;
2622;SDS011;1321;48.690;9.022;2023-05-07T05:05:57;16.33;;;15.83;;
2622;SDS011;1321;48.690;9.022;2023-05-07T05:08:26;16.53;;;15.90;;
2622;SDS011;1321;48.690;9.022;2023-05-07T05:10:54;16.17;;;15.63;;
2622;SDS011;1321;48.690;9.022;2023-05-07T05:13:22;16.80;;;16.00;;
2622;SDS011;1321;48.690;9.022;2023-05-07T05:15:50;17.43;;;16.67;;
2622;SDS011;1321;48.690;9.022;2023-05-07T05:18:19;17.30;;;16.33;;
2622;SDS011;1321;48.690;9.022;2023-05-07T05:20:47;17.53;;;16.83;;
2622;SDS011;1321;48.690;9.022;2023-05-07T05:23:17;17.03;;;16.43;;
2622;SDS011;1321;48.690;9.022;2023-05-07T05:25:45;17.47;;;16.77;;
2622;SDS011;1321;48.690;9.022;2023-05-07T05:28:13;16.97;;;16.37;;
2622;SDS011;1321;48.690;9.022;2023-05-07T05:30:41;17.53;;;16.93;;
2622;SDS011;1321;48.690;9.022;2023-05-07T05:33:10;16.90;;;16.30;;
2622;SDS011;1321;48.690;9.022;2023-05-07T05:35:38;17.80;;;17.20;;
2622;SDS011;1321;48.690;9.022;2023-05-07T05:38:06;17.67;;;16.80;;
2622;SDS011;1321;48.690;9.022;2023-05-07T05:40:36;17.77;;;16.97;;
2622;SDS011;1321;48.690;9.022;2023-05-07T05:43:05;17.67;;;16.87;;
2622;SDS011;1321;48.690;9.022;2023-05-07T05:45:33;18.27;;;17.50;;
2622;SDS011;1321;48.690;9.022;2023-05-07T05:48:01;19.00;;;18.20;;
2622;SDS011;1321;48.690;9.022;2023-05-07T05:50:30;17.53;;;16.93;;
2622;SDS011;1321;48.690;9.022;2023-05-07T05:52:58;17.43;;;16.83;;
2622;SDS011;1321;48.690;9.022;2023-05-07T05:55:26;18.37;;;17.67;;
2622;SDS011;1321;48.690;9.022;2023-05-07T05:57:56;18.47;;;17.63;;
2622;SDS011;1321;48.690;9.022;2023-05-07T06:00:24;18.70;;;18.00;;
2622;SDS011;1321;48.690;9.022;2023-05-07T06:02:52;18.63;;;17.90;;
2622;SDS011;1321;48.690;9.022;2023-05-07T06:05:21;18.87;;;17.87;;
2622;SDS011;1321;48.690;9.022;2023-05-07T06:07:49;18.50;;;17.80;;
2622;SDS011;1321;48.690;9.022;2023-05-07T06:10:17;19.40;;;18.60;;
2622;SDS011;1321;48.690;9.022;2023-05-07T06:12:45;18.30;;;17.50;;
2622;SDS011;1321;48.690;9.022;2023-05-07T06:15:15;18.27;;;17.57;;
2622;SDS011;1321;48.690;9.022;2023-05-07T06:17:43;17.67;;;17.03;;
2622;SDS011;1321;48.690;9.022;2023-05-07T06:20:11;17.97;;;17.13;;
2622;SDS011;1321;48.690;9.022;2023-05-07T06:22:39;18.00;;;17.30;;
2622;SDS011;1321;48.690;9.022;2023-05-07T06:25:08;18.03;;;17.10;;
2622;SDS011;1321;48.690;9.022;2023-05-07T06:27:36;17.80;;;17.10;;
2622;SDS011;1321;48.690;9.022;2023-05-07T06:30:06;17.80;;;17.20;;
2622;SDS011;1321;48.690;9.022;2023-05-07T06:32:36;17.70;;;17.00;;
2622;SDS011;1321;48.690;9.022;2023-05-07T06:35:05;16.80;;;16.30;;
2622;SDS011;1321;48.690;9.022;2023-05-07T06:37:33;17.73;;;17.00;;
2622;SDS011;1321;48.690;9.022;2023-05-07T06:40:05;17.17;;;16.57;;
2622;SDS011;1321;48.690;9.022;2023-05-07T06:42:35;17.50;;;17.00;;
2622;SDS011;1321;48.690;9.022;2023-05-07T06:45:03;18.67;;;17.70;;
2622;SDS011;1321;48.690;9.022;2023-05-07T06:47:32;17.93;;;17.20;;
2622;SDS011;1321;48.690;9.022;2023-05-07T06:50:01;17.87;;;17.27;;
2622;SDS011;1321;48.690;9.022;2023-05-07T06:52:30;17.60;;;17.10;;
2622;SDS011;1321;48.690;9.022;2023-05-07T06:54:58;17.30;;;16.60;;
2622;SDS011;1321;48.690;9.022;2023-05-07T06:57:27;18.03;;;17.23;;
2622;SDS011;1321;48.690;9.022;2023-05-07T06:59:55;18.20;;;17.40;;
2622;SDS011;1321;48.690;9.022;2023-05-07T07:02:23;17.00;;;16.50;;
2622;SDS011;1321;48.690;9.022;2023-05-07T07:04:52;17.20;;;16.60;;
2622;SDS011;1321;48.690;9.022;2023-05-07T07:07:21;18.17;;;17.57;;
2622;SDS011;1321;48.690;9.022;2023-05-07T07:09:49;17.00;;;16.33;;
2622;SDS011;1321;48.690;9.022;2023-05-07T07:12:18;17.10;;;16.50;;
2622;SDS011;1321;48.690;9.022;2023-05-07T07:14:49;17.07;;;16.47;;
2622;SDS011;1321;48.690;9.022;2023-05-07T07:17:18;17.83;;;17.13;;
2622;SDS011;1321;48.690;9.022;2023-05-07T07:19:46;18.10;;;17.40;;
2622;SDS011;1321;48.690;9.022;2023-05-07T07:22:46;17.67;;;17.17;;
2622;SDS011;1321;48.690;9.022;2023-05-07T07:25:42;17.47;;;16.87;;
2622;SDS011;1321;48.690;9.022;2023-05-07T07:28:20;17.20;;;16.60;;
2622;SDS011;1321;48.690;9.022;2023-05-07T07:31:40;17.70;;;16.60;;
2622;SDS011;1321;48.690;9.022;2023-05-07T07:34:20;16.83;;;16.13;;
2622;SDS011;1321;48.690;9.022;2023-05-07T07:37:05;16.87;;;16.10;;
2622;SDS011;1321;48.690;9.022;2023-05-07T07:39:42;16.90;;;16.40;;
2622;SDS011;1321;48.690;9.022;2023-05-07T07:42:11;17.70;;;17.00;;
2622;SDS011;1321;48.690;9.022;2023-05-07T07:44:40;16.73;;;16.13;;
2622;SDS011;1321;48.690;9.022;2023-05-07T07:47:24;16.73;;;16.23;;
2622;SDS011;1321;48.690;9.022;2023-05-07T07:50:22;16.30;;;15.90;;
2622;SDS011;1321;48.690;9.022;2023-05-07T07:53:20;17.10;;;16.50;;
2622;SDS011;1321;48.690;9.022;2023-05-07T07:55:50;16.50;;;15.90;;
2622;SDS011;1321;48.690;9.022;2023-05-07T07:58:23;17.10;;;16.50;;
2622;SDS011;1321;48.690;9.022;2023-05-07T08:00:52;16.60;;;16.00;;
2622;SDS011;1321;48.690;9.022;2023-05-07T08:03:22;16.20;;;15.70;;
2622;SDS011;1321;48.690;9.022;2023-05-07T08:05:54;16.20;;;15.67;;
2622;SDS011;1321;48.690;9.022;2023-05-07T08:08:23;16.40;;;15.80;;
2622;SDS011;1321;48.690;9.022;2023-05-07T08:10:53;16.17;;;15.57;;
2622;SDS011;1321;48.690;9.022;2023-05-07T08:13:21;15.43;;;14.93;;
2622;SDS011;1321;48.690;9.022;2023-05-07T08:15:49;16.33;;;15.63;;
2622;SDS011;1321;48.690;9.022;2023-05-07T08:18:41;16.20;;;15.60;;
2622;SDS011;1321;48.690;9.022;2023-05-07T08:21:09;15.60;;;15.20;;
2622;SDS011;1321;48.690;9.022;2023-05-07T08:23:38;15.20;;;14.80;;
2622;SDS011;1321;48.690;9.022;2023-05-07T08:26:16;15.43;;;15.03;;
2622;SDS011;1321;48.690;9.022;2023-05-07T08:28:59;15.67;;;14.97;;
2622;SDS011;1321;48.690;9.022;2023-05-07T08:31:28;16.10;;;15.60;;
2622;SDS011;1321;48.690;9.022;2023-05-07T08:37:35;16.37;;;15.77;;
2622;SDS011;1321;48.690;9.022;2023-05-07T08:43:30;15.93;;;15.40;;
2622;SDS011;1321;48.690;9.022;2023-05-07T08:46:43;15.90;;;15.33;;
2622;SDS011;1321;48.690;9.022;2023-05-07T08:49:31;15.67;;;15.17;;
2622;SDS011;1321;48.690;9.022;2023-05-07T08:52:27;15.00;;;14.60;;
2622;SDS011;1321;48.690;9.022;2023-05-07T08:55:08;14.60;;;14.30;;
2622;SDS011;1321;48.690;9.022;2023-05-07T08:58:03;15.30;;;14.80;;
2622;SDS011;1321;48.690;9.022;2023-05-07T09:00:34;14.77;;;14.37;;
2622;SDS011;1321;48.690;9.022;2023-05-07T09:03:28;15.00;;;14.60;;
2622;SDS011;1321;48.690;9.022;2023-05-07T09:06:13;14.53;;;14.10;;
2622;SDS011;1321;48.690;9.022;2023-05-07T09:09:04;14.77;;;14.37;;
2622;SDS011;1321;48.690;9.022;2023-05-07T09:12:02;14.93;;;14.53;;
2622;SDS011;1321;48.690;9.022;2023-05-07T09:14:32;15.03;;;14.63;;
2622;SDS011;1321;48.690;9.022;2023-05-07T09:17:26;15.17;;;14.57;;
2622;SDS011;1321;48.690;9.022;2023-05-07T09:19:55;14.83;;;14.30;;
2622;SDS011;1321;48.690;9.022;2023-05-07T09:22:23;15.30;;;14.80;;
2622;SDS011;1321;48.690;9.022;2023-05-07T09:24:52;14.83;;;14.43;;
2622;SDS011;1321;48.690;9.022;2023-05-07T09:27:20;15.50;;;15.00;;
2622;SDS011;1321;48.690;9.022;2023-05-07T09:29:48;15.77;;;15.33;;
2622;SDS011;1321;48.690;9.022;2023-05-07T09:32:17;14.77;;;14.37;;
2622;SDS011;1321;48.690;9.022;2023-05-07T09:34:47;14.90;;;14.50;;
2622;SDS011;1321;48.690;9.022;2023-05-07T09:37:16;15.30;;;14.80;;
2622;SDS011;1321;48.690;9.022;2023-05-07T09:39:46;15.27;;;14.70;;
2622;SDS011;1321;48.690;9.022;2023-05-07T09:42:16;15.40;;;14.80;;
2622;SDS011;1321;48.690;9.022;2023-05-07T09:44:50;16.00;;;15.50;;
2622;SDS011;1321;48.690;9.022;2023-05-07T09:47:19;15.90;;;15.30;;
2622;SDS011;1321;48.690;9.022;2023-05-07T09:49:54;15.47;;;14.97;;
2622;SDS011;1321;48.690;9.022;2023-05-07T09:52:24;15.30;;;14.90;;
2622;SDS011;1321;48.690;9.022;2023-05-07T09:54:55;16.10;;;15.40;;
2622;SDS011;1321;48.690;9.022;2023-05-07T09:57:26;15.40;;;14.83;;
2622;SDS011;1321;48.690;9.022;2023-05-07T09:59:56;16.50;;;15.70;;
2622;SDS011;1321;48.690;9.022;2023-05-07T10:02:27;15.50;;;14.97;;
2622;SDS011;1321;48.690;9.022;2023-05-07T10:05:00;16.83;;;16.00;;
2622;SDS011;1321;48.690;9.022;2023-05-07T10:07:29;16.90;;;16.10;;
2622;SDS011;1321;48.690;9.022;2023-05-07T10:09:58;15.53;;;14.80;;
2622;SDS011;1321;48.690;9.022;2023-05-07T10:12:28;16.17;;;15.27;;
2622;SDS011;1321;48.690;9.022;2023-05-07T10:15:05;15.47;;;14.70;;
2622;SDS011;1321;48.690;9.022;2023-05-07T10:17:38;15.20;;;14.50;;
2622;SDS011;1321;48.690;9.022;2023-05-07T10:20:10;14.67;;;14.07;;
2622;SDS011;1321;48.690;9.022;2023-05-07T10:22:41;14.27;;;13.67;;
2622;SDS011;1321;48.690;9.022;2023-05-07T10:25:17;13.87;;;13.47;;
2622;SDS011;1321;48.690;9.022;2023-05-07T10:27:50;14.53;;;14.03;;
2622;SDS011;1321;48.690;9.022;2023-05-07T10:30:22;15.43;;;14.70;;
2622;SDS011;1321;48.690;9.022;2023-05-07T10:33:03;14.83;;;14.23;;
2622;SDS011;1321;48.690;9.022;2023-05-07T10:35:37;13.90;;;13.50;;
2622;SDS011;1321;48.690;9.022;2023-05-07T10:38:08;15.90;;;15.27;;
2622;SDS011;1321;48.690;9.022;2023-05-07T10:40:36;15.40;;;14.80;;
2622;SDS011;1321;48.690;9.022;2023-05-07T10:43:05;15.13;;;14.63;;
2622;SDS011;1321;48.690;9.022;2023-05-07T10:45:36;15.60;;;15.10;;
2622;SDS011;1321;48.690;9.022;2023-05-07T10:48:14;15.43;;;14.93;;
2622;SDS011;1321;48.690;9.022;2023-05-07T10:50:47;16.13;;;15.63;;
2622;SDS011;1321;48.690;9.022;2023-05-07T10:53:23;15.10;;;14.50;;
2622;SDS011;1321;48.690;9.022;2023-05-07T11:02:00;15.10;;;14.70;;
2622;SDS011;1321;48.690;9.022;2023-05-07T11:04:31;16.30;;;15.60;;
2622;SDS011;1321;48.690;9.022;2023-05-07T11:10:06;15.03;;;14.63;;
2622;SDS011;1321;48.690;9.022;2023-05-07T11:12:48;15.73;;;15.23;;
2622;SDS011;1321;48.690;9.022;2023-05-07T11:15:42;15.43;;;14.93;;
2622;SDS011;1321;48.690;9.022;2023-05-07T11:18:14;15.30;;;14.90;;
2622;SDS011;1321;48.690;9.022;2023-05-07T11:20:50;14.90;;;14.43;;
2622;SDS011;1321;48.690;9.022;2023-05-07T11:26:42;15.33;;;14.93;;
2622;SDS011;1321;48.690;9.022;2023-05-07T11:29:15;15.60;;;15.10;;
2622;SDS011;1321;48.690;9.022;2023-05-07T11:31:48;15.30;;;14.90;;
2622;SDS011;1321;48.690;9.022;2023-05-07T11:34:31;15.50;;;15.00;;
2622;SDS011;1321;48.690;9.022;2023-05-07T11:37:03;15.63;;;15.17;;
2622;SDS011;1321;48.690;9.022;2023-05-07T11:39:46;15.70;;;15.30;;
2622;SDS011;1321;48.690;9.022;2023-05-07T11:42:29;15.53;;;15.03;;
2622;SDS011;1321;48.690;9.022;2023-05-07T11:45:05;15.93;;;15.43;;
2622;SDS011;1321;48.690;9.022;2023-05-07T11:47:35;14.47;;;14.07;;
2622;SDS011;1321;48.690;9.022;2023-05-07T11:50:15;15.20;;;14.70;;
2622;SDS011;1321;48.690;9.022;2023-05-07T11:53:13;15.10;;;14.70;;
2622;SDS011;1321;48.690;9.022;2023-05-07T11:56:51;14.77;;;14.20;;
2622;SDS011;1321;48.690;9.022;2023-05-07T11:59:42;14.60;;;14.10;;
2622;SDS011;1321;48.690;9.022;2023-05-07T12:03:02;15.50;;;15.10;;
2622;SDS011;1321;48.690;9.022;2023-05-07T12:06:01;15.60;;;15.10;;
2622;SDS011;1321;48.690;9.022;2023-05-07T12:08:29;14.60;;;13.93;;
2622;SDS011;1321;48.690;9.022;2023-05-07T12:10:58;13.00;;;12.70;;
2622;SDS011;1321;48.690;9.022;2023-05-07T12:13:29;12.70;;;12.40;;
2622;SDS011;1321;48.690;9.022;2023-05-07T12:16:00;12.40;;;12.10;;
2622;SDS011;1321;48.690;9.022;2023-05-07T12:18:35;13.43;;;12.93;;
2622;SDS011;1321;48.690;9.022;2023-05-07T12:21:31;12.60;;;12.10;;
2622;SDS011;1321;48.690;9.022;2023-05-07T12:24:23;12.40;;;12.00;;
2622;SDS011;1321;48.690;9.022;2023-05-07T12:27:02;12.70;;;12.20;;
2622;SDS011;1321;48.690;9.022;2023-05-07T12:30:08;12.70;;;12.30;;
2622;SDS011;1321;48.690;9.022;2023-05-07T12:32:52;13.00;;;12.60;;
2622;SDS011;1321;48.690;9.022;2023-05-07T12:35:47;13.17;;;12.50;;
2622;SDS011;1321;48.690;9.022;2023-05-07T12:38:26;12.60;;;12.30;;
2622;SDS011;1321;48.690;9.022;2023-05-07T12:41:07;14.10;;;13.40;;
2622;SDS011;1321;48.690;9.022;2023-05-07T12:43:36;13.97;;;13.47;;
2622;SDS011;1321;48.690;9.022;2023-05-07T12:46:07;13.93;;;13.53;;
2622;SDS011;1321;48.690;9.022;2023-05-07T12:48:36;14.00;;;13.63;;
2622;SDS011;1321;48.690;9.022;2023-05-07T12:51:05;14.63;;;14.13;;
2622;SDS011;1321;48.690;9.022;2023-05-07T12:53:42;15.20;;;14.73;;
2622;SDS011;1321;48.690;9.022;2023-05-07T12:56:11;15.40;;;14.70;;
2622;SDS011;1321;48.690;9.022;2023-05-07T12:58:39;15.07;;;14.40;;
2622;SDS011;1321;48.690;9.022;2023-05-07T13:01:09;13.73;;;13.43;;
2622;SDS011;1321;48.690;9.022;2023-05-07T13:03:41;13.80;;;13.50;;
2622;SDS011;1321;48.690;9.022;2023-05-07T13:06:17;13.80;;;13.50;;
2622;SDS011;1321;48.690;9.022;2023-05-07T13:08:45;13.80;;;13.50;;
2622;SDS011;1321;48.690;9.022;2023-05-07T13:11:13;14.37;;;14.00;;
2622;SDS011;1321;48.690;9.022;2023-05-07T13:13:41;14.83;;;14.33;;
2622;SDS011;1321;48.690;9.022;2023-05-07T13:16:11;14.77;;;14.27;;
2622;SDS011;1321;48.690;9.022;2023-05-07T13:18:39;15.40;;;14.80;;
2622;SDS011;1321;48.690;9.022;2023-05-07T13:21:10;15.17;;;14.53;;
2622;SDS011;1321;48.690;9.022;2023-05-07T13:23:39;14.77;;;14.30;;
2622;SDS011;1321;48.690;9.022;2023-05-07T13:26:08;15.10;;;14.50;;
2622;SDS011;1321;48.690;9.022;2023-05-07T13:29:16;15.80;;;15.20;;
2622;SDS011;1321;48.690;9.022;2023-05-07T13:32:41;15.40;;;14.90;;
2622;SDS011;1321;48.690;9.022;2023-05-07T13:35:35;15.30;;;14.80;;
2622;SDS011;1321;48.690;9.022;2023-05-07T13:38:48;15.40;;;14.60;;
2622;SDS011;1321;48.690;9.022;2023-05-07T13:41:18;15.23;;;14.63;;
2622;SDS011;1321;48.690;9.022;2023-05-07T13:43:46;15.20;;;14.70;;
2622;SDS011;1321;48.690;9.022;2023-05-07T13:46:15;16.60;;;15.37;;
2622;SDS011;1321;48.690;9.022;2023-05-07T13:48:46;15.80;;;15.30;;
2622;SDS011;1321;48.690;9.022;2023-05-07T13:51:15;15.77;;;15.27;;
2622;SDS011;1321;48.690;9.022;2023-05-07T13:53:46;16.10;;;15.57;;
2622;SDS011;1321;48.690;9.022;2023-05-07T13:56:15;16.60;;;15.90;;
2622;SDS011;1321;48.690;9.022;2023-05-07T13:58:43;16.60;;;16.00;;
2622;SDS011;1321;48.690;9.022;2023-05-07T14:01:25;16.17;;;15.67;;
2622;SDS011;1321;48.690;9.022;2023-05-07T14:03:55;17.50;;;16.80;;
2622;SDS011;1321;48.690;9.022;2023-05-07T14:06:26;17.30;;;16.47;;
2622;SDS011;1321;48.690;9.022;2023-05-07T14:08:54;16.93;;;16.17;;
2622;SDS011;1321;48.690;9.022;2023-05-07T14:11:24;16.57;;;16.00;;
2622;SDS011;1321;48.690;9.022;2023-05-07T14:13:52;16.97;;;16.30;;
2622;SDS011;1321;48.690;9.022;2023-05-07T14:16:25;15.83;;;15.33;;
2622;SDS011;1321;48.690;9.022;2023-05-07T14:18:55;16.33;;;15.60;;
2622;SDS011;1321;48.690;9.022;2023-05-07T14:21:24;16.00;;;15.50;;
2622;SDS011;1321;48.690;9.022;2023-05-07T14:23:53;16.30;;;15.63;;
2622;SDS011;1321;48.690;9.022;2023-05-07T14:26:23;16.20;;;15.60;;
2622;SDS011;1321;48.690;9.022;2023-05-07T14:28:54;15.13;;;14.73;;
2622;SDS011;1321;48.690;9.022;2023-05-07T14:31:25;15.83;;;15.30;;
2622;SDS011;1321;48.690;9.022;2023-05-07T14:33:56;15.40;;;14.90;;
2622;SDS011;1321;48.690;9.022;2023-05-07T14:36:27;17.10;;;16.50;;
2622;SDS011;1321;48.690;9.022;2023-05-07T14:38:59;15.47;;;15.07;;
2622;SDS011;1321;48.690;9.022;2023-05-07T14:41:30;15.43;;;14.83;;
2622;SDS011;1321;48.690;9.022;2023-05-07T14:43:59;15.00;;;14.60;;
2622;SDS011;1321;48.690;9.022;2023-05-07T14:46:37;15.17;;;14.70;;
2622;SDS011;1321;48.690;9.022;2023-05-07T14:49:52;15.50;;;15.00;;
2622;SDS011;1321;48.690;9.022;2023-05-07T14:52:47;16.00;;;15.30;;
2622;SDS011;1321;48.690;9.022;2023-05-07T14:55:49;15.63;;;15.13;;
2622;SDS011;1321;48.690;9.022;2023-05-07T14:58:18;15.47;;;14.97;;
2622;SDS011;1321;48.690;9.022;2023-05-07T15:00:50;15.30;;;14.80;;
2622;SDS011;1321;48.690;9.022;2023-05-07T15:03:40;15.07;;;14.60;;
2622;SDS011;1321;48.690;9.022;2023-05-07T15:06:39;15.23;;;14.83;;
2622;SDS011;1321;48.690;9.022;2023-05-07T15:09:50;16.53;;;15.93;;
2622;SDS011;1321;48.690;9.022;2023-05-07T15:12:18;15.87;;;15.40;;
2622;SDS011;1321;48.690;9.022;2023-05-07T15:14:46;16.37;;;15.87;;
2622;SDS011;1321;48.690;9.022;2023-05-07T15:17:14;15.87;;;15.27;;
2622;SDS011;1321;48.690;9.022;2023-05-07T15:19:42;16.47;;;15.97;;
2622;SDS011;1321;48.690;9.022;2023-05-07T15:22:12;21.83;;;20.50;;
2622;SDS011;1321;48.690;9.022;2023-05-07T15:24:40;17.87;;;17.07;;
2622;SDS011;1321;48.690;9.022;2023-05-07T15:27:10;16.93;;;16.33;;
2622;SDS011;1321;48.690;9.022;2023-05-07T15:29:38;17.13;;;16.43;;
2622;SDS011;1321;48.690;9.022;2023-05-07T15:32:07;16.63;;;16.03;;
2622;SDS011;1321;48.690;9.022;2023-05-07T15:34:37;16.33;;;15.83;;
2622;SDS011;1321;48.690;9.022;2023-05-07T15:37:05;16.47;;;15.87;;
2622;SDS011;1321;48.690;9.022;2023-05-07T15:39:34;16.20;;;15.70;;
2622;SDS011;1321;48.690;9.022;2023-05-07T15:42:03;17.17;;;16.57;;